Time;durP1;ratioP1;P1;durP2;ratioP2;P2;SDS_P1;SDS_P2;PMS_P1;PMS_P2;Temp;Humidity;BMP_temperature;BMP_pressure;BME280_temperature;BME280_humidity;BME280_pressure;Samples;Min_cycle;Max_cycle;Signal;HPM_P1;HPM_P2
2021/09/19 00:02:33;;;;;;;8.82;4.90;;;17.80;76.40;;;;;;10115687;28;20121;-60
2021/09/19 00:07:24;;;;;;;7.55;5.15;;;17.60;76.60;;;;;;10109777;28;20021;-61
2021/09/19 00:12:14;;;;;;;7.20;4.90;;;17.50;77.60;;;;;;10107818;28;20502;-59
2021/09/19 00:17:05;;;;;;;5.68;5.00;;;17.30;78.30;;;;;;10117130;28;20120;-60
2021/09/19 00:21:56;;;;;;;7.40;5.00;;;17.30;78.40;;;;;;10120296;28;20033;-60
2021/09/19 00:26:46;;;;;;;6.45;4.70;;;17.30;78.30;;;;;;10124907;28;20072;-59
2021/09/19 00:31:37;;;;;;;7.38;4.93;;;17.20;78.90;;;;;;10124072;28;20079;-59
2021/09/19 00:36:28;;;;;;;6.45;4.53;;;17.10;79.20;;;;;;10124567;28;20054;-59
2021/09/19 00:41:18;;;;;;;6.63;4.82;;;17.00;79.60;;;;;;10117110;28;20032;-61
2021/09/19 00:46:09;;;;;;;7.00;4.65;;;17.00;79.70;;;;;;10129347;28;20032;-62
2021/09/19 00:51:01;;;;;;;8.15;5.35;;;16.90;80.20;;;;;;10116971;28;20104;-61
2021/09/19 00:55:56;;;;;;;5.93;5.25;;;16.80;80.10;;;;;;10120617;28;20119;-60
2021/09/19 01:00:49;;;;;;;6.27;5.03;;;16.80;80.40;;;;;;10123620;28;20044;-59
2021/09/19 01:05:40;;;;;;;7.20;5.50;;;16.70;80.80;;;;;;10119290;28;20017;-60
2021/09/19 01:10:30;;;;;;;6.82;4.88;;;16.80;80.60;;;;;;10120616;28;20051;-61
2021/09/19 01:15:22;;;;;;;7.32;5.22;;;16.80;80.20;;;;;;10122270;28;20043;-60
2021/09/19 01:20:13;;;;;;;6.45;4.70;;;16.80;80.10;;;;;;10119049;28;20033;-60
2021/09/19 01:25:08;;;;;;;7.22;4.93;;;16.70;80.80;;;;;;10113875;28;20021;-61
2021/09/19 01:29:59;;;;;;;9.13;5.30;;;16.70;81.10;;;;;;10128788;28;20127;-60
2021/09/19 01:34:52;;;;;;;7.22;4.57;;;16.50;81.40;;;;;;10123071;28;20084;-60
2021/09/19 01:39:43;;;;;;;6.53;4.95;;;16.50;81.50;;;;;;10126886;28;20082;-60
2021/09/19 01:44:34;;;;;;;6.20;4.43;;;16.40;81.90;;;;;;10115066;28;20107;-60
2021/09/19 01:49:24;;;;;;;8.90;5.60;;;16.30;82.20;;;;;;10121916;28;20037;-60
2021/09/19 01:54:16;;;;;;;14.25;7.50;;;16.30;82.30;;;;;;10115787;28;20032;-60
2021/09/19 01:59:07;;;;;;;6.60;5.50;;;16.40;82.10;;;;;;10113707;28;20391;-59
2021/09/19 02:03:57;;;;;;;12.35;7.22;;;16.40;82.00;;;;;;10117968;28;20024;-60
2021/09/19 02:08:49;;;;;;;8.25;5.07;;;16.40;82.10;;;;;;10122917;28;20108;-59
2021/09/19 02:13:41;;;;;;;12.95;6.93;;;16.20;82.90;;;;;;10092746;28;20032;-60
2021/09/19 02:18:32;;;;;;;6.07;4.88;;;16.20;83.70;;;;;;10112689;28;20569;-60
2021/09/19 02:23:23;;;;;;;6.72;4.70;;;16.20;83.20;;;;;;10122377;28;20028;-60
2021/09/19 02:28:14;;;;;;;7.05;4.65;;;16.00;83.90;;;;;;10121121;28;20435;-59
2021/09/19 02:33:04;;;;;;;5.82;4.60;;;16.00;84.30;;;;;;10120512;28;20028;-61
2021/09/19 02:37:55;;;;;;;5.85;4.30;;;15.90;84.20;;;;;;10115467;28;20221;-59
2021/09/19 02:42:48;;;;;;;6.38;4.50;;;16.00;84.20;;;;;;10101710;28;20380;-60
2021/09/19 02:47:40;;;;;;;7.38;4.15;;;16.00;83.70;;;;;;10122256;28;20583;-60
2021/09/19 02:52:30;;;;;;;6.68;4.57;;;16.10;83.70;;;;;;10123925;28;20409;-60
2021/09/19 02:57:21;;;;;;;8.52;4.88;;;16.00;83.70;;;;;;10127750;28;20568;-60
2021/09/19 03:02:13;;;;;;;5.88;4.72;;;16.00;84.20;;;;;;10116722;28;20840;-60
2021/09/19 03:07:03;;;;;;;8.35;3.97;;;15.80;84.90;;;;;;10119058;28;20127;-60
2021/09/19 03:11:54;;;;;;;6.38;4.38;;;15.80;84.80;;;;;;10110401;28;20028;-61
2021/09/19 03:16:45;;;;;;;5.75;3.85;;;15.70;85.30;;;;;;10113506;28;20032;-59
2021/09/19 03:21:35;;;;;;;6.18;4.07;;;15.70;85.00;;;;;;10114380;28;20704;-60
2021/09/19 03:26:26;;;;;;;7.70;3.88;;;15.70;85.60;;;;;;10119909;28;20514;-60
2021/09/19 03:31:17;;;;;;;5.18;3.67;;;15.60;85.40;;;;;;10124459;28;20398;-59
2021/09/19 03:36:07;;;;;;;6.93;3.65;;;15.60;85.50;;;;;;10130010;28;20031;-59
2021/09/19 03:40:58;;;;;;;6.30;4.15;;;15.60;85.40;;;;;;10113164;28;20462;-59
2021/09/19 03:45:49;;;;;;;7.10;3.95;;;15.70;85.40;;;;;;10117885;28;20016;-60
2021/09/19 03:50:39;;;;;;;5.78;3.50;;;15.60;85.30;;;;;;10119626;28;20032;-61
2021/09/19 03:55:31;;;;;;;5.95;4.30;;;15.60;85.20;;;;;;10120696;28;20033;-60
2021/09/19 04:00:21;;;;;;;6.85;4.70;;;15.50;85.30;;;;;;10123645;28;20558;-61
2021/09/19 04:05:12;;;;;;;5.30;3.60;;;15.50;85.40;;;;;;10106904;28;20037;-61
2021/09/19 04:10:05;;;;;;;5.45;3.53;;;15.50;85.60;;;;;;10120650;28;20043;-59
2021/09/19 04:14:55;;;;;;;8.05;4.10;;;15.40;85.80;;;;;;10103262;28;20043;-60
2021/09/19 04:19:46;;;;;;;5.35;3.42;;;15.40;85.80;;;;;;10100496;28;20044;-60
2021/09/19 04:24:37;;;;;;;6.47;3.95;;;15.30;86.10;;;;;;10122207;28;20051;-60
2021/09/19 04:29:27;;;;;;;6.03;3.55;;;15.40;85.90;;;;;;10125453;28;20085;-59
2021/09/19 04:34:18;;;;;;;4.15;3.15;;;15.30;86.50;;;;;;10122695;28;20479;-61
2021/09/19 04:39:08;;;;;;;4.43;3.40;;;15.40;86.20;;;;;;10133277;28;20079;-61
2021/09/19 04:43:59;;;;;;;4.55;3.25;;;15.40;86.30;;;;;;10123833;28;20040;-59
2021/09/19 04:48:54;;;;;;;5.60;3.33;;;15.40;86.10;;;;;;10122619;28;20545;-60
2021/09/19 04:53:44;;;;;;;4.50;3.05;;;15.50;86.00;;;;;;10118908;28;20307;-60
2021/09/19 04:58:35;;;;;;;4.95;3.70;;;15.40;86.20;;;;;;10130284;28;20267;-60
2021/09/19 05:03:25;;;;;;;5.55;3.45;;;15.40;86.20;;;;;;10122051;28;20120;-61
2021/09/19 05:08:16;;;;;;;4.53;3.47;;;15.30;86.50;;;;;;10113284;28;20025;-61
2021/09/19 05:13:07;;;;;;;4.85;3.50;;;15.30;86.30;;;;;;10131595;28;20135;-60
2021/09/19 05:17:58;;;;;;;5.78;3.40;;;15.30;86.30;;;;;;10125153;28;20656;-63
2021/09/19 05:22:48;;;;;;;5.22;3.80;;;15.40;86.10;;;;;;10106138;28;20025;-61
2021/09/19 05:27:39;;;;;;;5.40;3.33;;;15.30;86.30;;;;;;10127001;28;20032;-60
2021/09/19 05:32:30;;;;;;;5.50;3.30;;;15.30;86.30;;;;;;10124558;28;20051;-62
2021/09/19 05:37:21;;;;;;;5.28;4.22;;;15.20;86.70;;;;;;10088666;28;20078;-61
2021/09/19 05:42:12;;;;;;;4.25;2.65;;;15.20;87.50;;;;;;10109404;28;20656;-60
2021/09/19 05:47:03;;;;;;;3.88;2.53;;;15.20;87.00;;;;;;10094382;28;20154;-61
2021/09/19 05:51:53;;;;;;;5.82;2.95;;;15.20;87.30;;;;;;10121775;28;20051;-60
2021/09/19 05:56:44;;;;;;;3.42;2.58;;;15.10;87.60;;;;;;10115962;28;20040;-61
2021/09/19 06:01:35;;;;;;;2.97;2.28;;;15.10;87.50;;;;;;10111967;28;20033;-60
2021/09/19 06:06:25;;;;;;;4.28;2.65;;;15.00;87.80;;;;;;10102527;28;20031;-61
2021/09/19 06:11:16;;;;;;;3.60;2.45;;;15.00;88.20;;;;;;10120585;28;20524;-61
2021/09/19 06:16:07;;;;;;;4.35;2.70;;;15.00;88.30;;;;;;10118326;28;20376;-59
2021/09/19 06:20:58;;;;;;;2.55;2.17;;;15.10;88.20;;;;;;10116315;28;20131;-61
2021/09/19 06:25:49;;;;;;;4.47;3.40;;;15.10;88.20;;;;;;10117236;28;20410;-61
2021/09/19 06:30:39;;;;;;;3.67;2.50;;;15.20;87.60;;;;;;10121874;28;20033;-60
2021/09/19 06:35:30;;;;;;;4.10;2.10;;;15.30;87.30;;;;;;10130028;28;20028;-60
2021/09/19 06:40:21;;;;;;;3.05;2.13;;;15.50;87.10;;;;;;10121523;28;20032;-60
2021/09/19 06:45:12;;;;;;;3.55;2.50;;;15.60;87.00;;;;;;10113372;28;20044;-60
2021/09/19 06:50:03;;;;;;;8.55;3.65;;;15.60;86.70;;;;;;10117461;28;20243;-60
2021/09/19 06:54:53;;;;;;;3.92;2.47;;;15.80;86.30;;;;;;10131760;28;20045;-60
2021/09/19 06:59:44;;;;;;;3.75;2.42;;;15.90;86.10;;;;;;10115059;28;20150;-61
2021/09/19 07:04:35;;;;;;;3.97;2.10;;;16.00;85.90;;;;;;10119335;28;20032;-59
2021/09/19 07:09:26;;;;;;;4.53;2.95;;;16.00;86.00;;;;;;10103934;28;20235;-60
2021/09/19 07:14:16;;;;;;;4.13;2.95;;;16.10;85.80;;;;;;10113486;28;20032;-60
2021/09/19 07:19:07;;;;;;;4.80;3.20;;;16.20;85.60;;;;;;10117581;28;20804;-62
2021/09/19 07:23:58;;;;;;;8.05;4.15;;;16.20;85.50;;;;;;10116381;28;20036;-60
2021/09/19 07:28:49;;;;;;;5.78;4.05;;;16.30;85.40;;;;;;10124416;28;20032;-60
2021/09/19 07:33:40;;;;;;;5.32;4.03;;;16.20;85.40;;;;;;10126378;28;20068;-60
2021/09/19 07:38:32;;;;;;;6.00;3.92;;;16.20;85.60;;;;;;10124086;28;20785;-61
2021/09/19 07:43:23;;;;;;;6.10;3.75;;;16.10;85.40;;;;;;10129414;28;20522;-59
2021/09/19 07:48:15;;;;;;;7.03;3.92;;;16.10;85.60;;;;;;10135817;28;20094;-60
2021/09/19 07:53:06;;;;;;;5.55;4.00;;;16.40;85.40;;;;;;10127646;28;20061;-62
2021/09/19 07:57:57;;;;;;;6.28;4.15;;;16.60;84.90;;;;;;10124974;28;20084;-61
2021/09/19 08:02:48;;;;;;;7.40;3.80;;;16.70;84.70;;;;;;10125890;28;20459;-58
2021/09/19 08:07:39;;;;;;;5.57;4.43;;;16.90;84.50;;;;;;10123958;28;20098;-65
2021/09/19 08:12:29;;;;;;;7.07;3.85;;;17.20;84.10;;;;;;10121287;28;20028;-61
2021/09/19 08:17:20;;;;;;;5.88;3.72;;;17.20;84.30;;;;;;10100087;28;20162;-62
2021/09/19 08:22:11;;;;;;;6.63;4.05;;;17.30;84.00;;;;;;10119142;28;20115;-61
2021/09/19 08:27:03;;;;;;;5.68;4.35;;;17.50;83.70;;;;;;10122757;28;20040;-58
2021/09/19 08:31:54;;;;;;;5.90;4.57;;;17.70;83.90;;;;;;10100581;28;20025;-60
2021/09/19 08:36:44;;;;;;;7.60;4.63;;;17.70;83.50;;;;;;10132343;28;20036;-60
2021/09/19 08:41:36;;;;;;;7.43;4.97;;;17.60;84.20;;;;;;10121818;28;20421;-60
2021/09/19 08:46:27;;;;;;;7.43;5.15;;;17.80;83.80;;;;;;10126990;28;20508;-60
2021/09/19 08:51:18;;;;;;;6.22;4.85;;;17.80;83.60;;;;;;10120841;28;20115;-60
2021/09/19 08:56:10;;;;;;;7.72;4.60;;;18.10;83.50;;;;;;10114616;28;20052;-60
2021/09/19 09:01:02;;;;;;;6.85;5.10;;;18.40;82.90;;;;;;10107583;28;20048;-60
2021/09/19 09:05:54;;;;;;;7.93;5.55;;;18.40;82.70;;;;;;10129181;28;20498;-60
2021/09/19 09:10:49;;;;;;;7.70;5.45;;;18.40;82.70;;;;;;10129623;28;20040;-61
2021/09/19 09:15:45;;;;;;;9.18;6.00;;;18.50;82.80;;;;;;10131816;28;20029;-62
2021/09/19 09:20:56;;;;;;;7.78;5.60;;;18.70;82.40;;;;;;10122523;28;20070;-61
2021/09/19 09:25:47;;;;;;;10.20;7.32;;;18.60;82.20;;;;;;10119531;28;20051;-59
2021/09/19 09:30:37;;;;;;;10.05;7.03;;;18.70;82.30;;;;;;10120169;28;20668;-61
2021/09/19 09:35:35;;;;;;;11.95;7.05;;;18.70;82.20;;;;;;10123128;28;20087;-61
2021/09/19 09:40:29;;;;;;;8.88;6.40;;;18.60;82.30;;;;;;10126500;28;20219;-60
2021/09/19 09:45:24;;;;;;;10.95;6.97;;;18.40;82.20;;;;;;10110931;28;20132;-60
2021/09/19 09:50:15;;;;;;;9.85;7.22;;;18.10;82.60;;;;;;10123858;28;20048;-62
2021/09/19 09:55:08;;;;;;;10.52;7.15;;;18.20;82.40;;;;;;10106583;28;20476;-61
2021/09/19 09:59:59;;;;;;;11.63;8.32;;;18.50;82.10;;;;;;10122684;28;20047;-61
2021/09/19 10:04:51;;;;;;;10.95;6.72;;;18.70;81.70;;;;;;10121029;28;20021;-60
2021/09/19 10:09:43;;;;;;;8.15;6.68;;;19.00;81.20;;;;;;10126246;28;20035;-62
2021/09/19 10:14:34;;;;;;;11.93;7.25;;;19.00;80.90;;;;;;10129082;28;20032;-60
2021/09/19 10:19:24;;;;;;;10.90;7.35;;;19.10;80.60;;;;;;10117432;28;20246;-60
2021/09/19 10:24:17;;;;;;;11.32;7.30;;;19.10;80.50;;;;;;10120815;28;20044;-62
2021/09/19 10:29:18;;;;;;;9.75;6.63;;;18.90;81.10;;;;;;10121184;28;20324;-61
2021/09/19 10:34:10;;;;;;;10.98;7.22;;;19.00;80.90;;;;;;10117144;28;20653;-59
2021/09/19 10:39:13;;;;;;;10.75;7.20;;;19.10;80.70;;;;;;10123901;28;20040;-61
2021/09/19 10:44:04;;;;;;;10.38;6.70;;;19.30;80.30;;;;;;10105860;28;20024;-60
2021/09/19 10:49:13;;;;;;;14.95;8.60;;;19.70;79.70;;;;;;10104714;28;20028;-60
2021/09/19 10:54:04;;;;;;;10.02;7.50;;;19.90;78.70;;;;;;10114617;28;20296;-60
2021/09/19 10:58:55;;;;;;;10.15;7.80;;;20.20;78.70;;;;;;10100682;28;20072;-61
2021/09/19 11:04:03;;;;;;;10.85;7.00;;;20.20;78.80;;;;;;10121428;28;20024;-61
2021/09/19 11:08:54;;;;;;;12.07;6.97;;;19.90;79.00;;;;;;10107958;28;20020;-61
2021/09/19 11:13:52;;;;;;;11.55;7.13;;;19.70;79.30;;;;;;10115223;28;20474;-61
2021/09/19 11:18:49;;;;;;;8.70;6.65;;;19.80;78.80;;;;;;10121578;28;20048;-62
2021/09/19 11:23:46;;;;;;;10.27;6.57;;;20.10;78.10;;;;;;10108236;28;20605;-60
2021/09/19 11:28:37;;;;;;;7.50;5.72;;;19.90;78.20;;;;;;10093421;28;20052;-62
2021/09/19 11:33:30;;;;;;;11.55;7.45;;;20.40;77.30;;;;;;10121264;28;20028;-62
2021/09/19 11:38:21;;;;;;;9.02;6.57;;;20.40;76.90;;;;;;10098717;28;20352;-59
2021/09/19 11:43:12;;;;;;;11.20;7.90;;;20.40;76.90;;;;;;10118377;28;20028;-59
2021/09/19 11:48:02;;;;;;;8.68;6.38;;;20.30;76.50;;;;;;10128276;28;20554;-61
2021/09/19 11:52:53;;;;;;;12.52;7.38;;;20.70;76.10;;;;;;10123003;28;20060;-60
2021/09/19 11:57:44;;;;;;;9.80;7.63;;;20.90;75.20;;;;;;10108522;28;20053;-60
2021/09/19 12:02:37;;;;;;;11.05;6.93;;;21.10;74.80;;;;;;10138002;28;20391;-60
2021/09/19 12:07:28;;;;;;;9.50;6.78;;;21.30;74.50;;;;;;10118018;28;20543;-62
2021/09/19 12:12:20;;;;;;;8.48;6.53;;;21.30;74.40;;;;;;10115012;28;20263;-60
2021/09/19 12:17:12;;;;;;;9.52;6.45;;;21.50;73.60;;;;;;10121884;28;20261;-60
2021/09/19 12:22:08;;;;;;;10.43;6.88;;;21.30;73.30;;;;;;10138243;28;20063;-60
2021/09/19 12:27:16;;;;;;;9.93;6.93;;;21.30;73.60;;;;;;10131664;28;20428;-59
2021/09/19 12:32:08;;;;;;;9.30;6.28;;;21.30;73.00;;;;;;10134378;28;20017;-61
2021/09/19 12:36:59;;;;;;;13.93;7.53;;;21.30;72.90;;;;;;10128858;28;20329;-62
2021/09/19 12:41:56;;;;;;;8.90;6.55;;;21.10;73.90;;;;;;10110080;28;20534;-61
2021/09/19 12:46:52;;;;;;;10.20;6.75;;;21.10;73.80;;;;;;10121668;28;20140;-60
2021/09/19 12:52:07;;;;;;;7.43;5.07;;;20.80;73.60;;;;;;10129524;28;20510;-61
2021/09/19 12:56:58;;;;;;;7.90;5.83;;;20.60;73.70;;;;;;10127539;28;20545;-60
2021/09/19 13:01:49;;;;;;;8.27;5.57;;;20.50;73.90;;;;;;10130878;28;20297;-60
2021/09/19 13:06:39;;;;;;;6.75;5.35;;;20.30;74.10;;;;;;10120945;28;20059;-60
2021/09/19 13:11:30;;;;;;;8.35;6.68;;;20.30;74.10;;;;;;10119900;28;20040;-60
2021/09/19 13:16:20;;;;;;;9.25;6.93;;;20.60;73.50;;;;;;10122184;28;20028;-60
2021/09/19 13:21:11;;;;;;;7.50;5.28;;;21.10;72.70;;;;;;10122537;28;20045;-59
2021/09/19 13:26:02;;;;;;;8.40;6.00;;;20.80;73.30;;;;;;10124384;28;20617;-60
2021/09/19 13:30:53;;;;;;;7.45;5.82;;;20.50;73.90;;;;;;10098428;28;20036;-60
2021/09/19 13:35:43;;;;;;;8.00;5.88;;;20.40;74.40;;;;;;10097597;28;20025;-61
2021/09/19 13:40:34;;;;;;;6.18;4.43;;;20.70;74.00;;;;;;10123960;28;20451;-61
2021/09/19 13:45:25;;;;;;;6.43;3.85;;;21.20;73.20;;;;;;10121727;28;20037;-60
2021/09/19 13:50:16;;;;;;;5.82;3.50;;;21.10;73.40;;;;;;10100711;28;20252;-60
2021/09/19 13:55:07;;;;;;;3.50;3.05;;;20.80;74.30;;;;;;10121642;28;20033;-61
2021/09/19 13:59:57;;;;;;;4.80;2.65;;;20.40;75.10;;;;;;10119281;28;20067;-60
2021/09/19 14:04:48;;;;;;;2.17;1.63;;;20.10;75.70;;;;;;10103664;28;20522;-60
2021/09/19 14:09:38;;;;;;;4.38;3.60;;;19.70;76.20;;;;;;10101955;28;20036;-61
2021/09/19 14:14:29;;;;;;;2.47;1.65;;;19.60;76.00;;;;;;10116190;28;20044;-60
2021/09/19 14:19:21;;;;;;;1.40;0.98;;;19.60;76.30;;;;;;10119746;28;20051;-59
2021/09/19 14:24:11;;;;;;;1.25;1.00;;;19.60;76.40;;;;;;10114561;28;20498;-59
2021/09/19 14:29:03;;;;;;;1.98;0.90;;;19.60;76.30;;;;;;10125050;28;20059;-62
2021/09/19 14:33:54;;;;;;;1.92;1.08;;;19.70;76.30;;;;;;10116123;28;20104;-60
2021/09/19 14:38:45;;;;;;;1.45;0.85;;;19.70;76.00;;;;;;10121947;28;20055;-60
2021/09/19 14:43:38;;;;;;;2.35;1.30;;;19.80;76.30;;;;;;10114235;28;20025;-60
2021/09/19 14:48:29;;;;;;;1.42;0.85;;;20.00;76.20;;;;;;10104236;28;20033;-59
2021/09/19 14:53:20;;;;;;;0.95;0.80;;;20.20;76.20;;;;;;10118596;28;20502;-59
2021/09/19 14:58:10;;;;;;;1.48;0.75;;;20.40;76.00;;;;;;10114419;28;20068;-60
2021/09/19 15:03:01;;;;;;;0.95;0.73;;;20.50;76.00;;;;;;10118527;28;20043;-59
2021/09/19 15:07:52;;;;;;;0.38;0.38;;;20.30;76.70;;;;;;10113318;28;20036;-61
2021/09/19 15:12:42;;;;;;;0.35;0.30;;;20.20;76.70;;;;;;10118345;28;20662;-62
2021/09/19 15:17:33;;;;;;;0.40;0.30;;;20.00;77.00;;;;;;10110881;28;20036;-60
2021/09/19 15:22:24;;;;;;;3.50;1.70;;;19.70;77.60;;;;;;10123242;28;20101;-61
2021/09/19 15:27:15;;;;;;;2.35;1.95;;;19.40;78.00;;;;;;10113170;28;20112;-60
2021/09/19 15:32:06;;;;;;;3.45;2.05;;;19.20;78.60;;;;;;10122890;28;20498;-59
2021/09/19 15:36:58;;;;;;;1.48;1.10;;;19.00;79.30;;;;;;10113271;28;20048;-60
2021/09/19 15:41:48;;;;;;;2.00;1.63;;;18.90;79.70;;;;;;10116851;28;20063;-62
2021/09/19 15:46:39;;;;;;;1.67;1.08;;;18.80;80.10;;;;;;10121684;28;20021;-59
2021/09/19 15:51:30;;;;;;;1.25;0.90;;;18.80;80.20;;;;;;10118735;28;20043;-60
2021/09/19 15:56:21;;;;;;;2.03;1.10;;;18.80;80.40;;;;;;10125040;28;20126;-61
2021/09/19 16:01:14;;;;;;;1.60;1.00;;;18.90;80.70;;;;;;10102545;28;20032;-59
2021/09/19 16:06:07;;;;;;;1.25;0.70;;;18.80;80.90;;;;;;10120370;28;20037;-61
2021/09/19 16:10:58;;;;;;;3.80;2.03;;;18.70;81.30;;;;;;10113682;28;20032;-60
2021/09/19 16:15:49;;;;;;;1.20;0.65;;;18.80;81.30;;;;;;10122686;28;20643;-61
2021/09/19 16:20:41;;;;;;;1.00;0.55;;;18.80;81.60;;;;;;10122999;28;20059;-60
2021/09/19 16:25:34;;;;;;;1.42;1.23;;;18.80;81.70;;;;;;10122008;28;20036;-60
2021/09/19 16:30:26;;;;;;;2.20;0.82;;;18.50;82.40;;;;;;10120342;28;20020;-60
2021/09/19 16:35:16;;;;;;;4.60;1.25;;;18.50;82.50;;;;;;10124394;28;20089;-59
2021/09/19 16:40:08;;;;;;;0.93;0.70;;;18.40;82.90;;;;;;10120648;28;20056;-60
2021/09/19 16:44:58;;;;;;;3.63;1.45;;;18.30;83.10;;;;;;10124092;28;20033;-61
2021/09/19 16:49:50;;;;;;;1.15;0.65;;;18.10;83.60;;;;;;10122296;28;20041;-60
2021/09/19 16:54:41;;;;;;;1.38;0.70;;;18.10;84.40;;;;;;10122709;28;20028;-61
2021/09/19 16:59:32;;;;;;;0.68;0.68;;;18.00;84.30;;;;;;10119323;28;20047;-61
2021/09/19 17:04:22;;;;;;;0.88;0.50;;;18.00;84.30;;;;;;10120855;28;20074;-61
2021/09/19 17:09:13;;;;;;;1.73;0.70;;;18.00;84.40;;;;;;10101672;28;20237;-64
2021/09/19 17:14:04;;;;;;;0.63;0.57;;;18.00;84.80;;;;;;10129854;28;20040;-62
2021/09/19 17:18:54;;;;;;;1.67;0.95;;;17.90;84.90;;;;;;10127454;28;20048;-63
2021/09/19 17:23:45;;;;;;;0.82;0.70;;;17.80;85.30;;;;;;10126607;28;20213;-63
2021/09/19 17:28:36;;;;;;;1.30;0.70;;;17.90;85.30;;;;;;10122745;28;20016;-62
2021/09/19 17:33:27;;;;;;;1.55;0.77;;;17.70;85.50;;;;;;10118705;28;20036;-61
2021/09/19 17:38:18;;;;;;;2.53;1.25;;;17.70;85.90;;;;;;10120842;28;20028;-62
2021/09/19 17:43:09;;;;;;;1.40;0.68;;;17.70;86.00;;;;;;10116573;28;20025;-60
2021/09/19 17:48:00;;;;;;;1.20;0.70;;;17.60;86.30;;;;;;10115889;28;20021;-61
2021/09/19 17:52:51;;;;;;;2.35;1.10;;;17.50;86.40;;;;;;10116035;28;20391;-61
2021/09/19 17:57:42;;;;;;;1.60;1.00;;;17.40;86.60;;;;;;10098595;28;20156;-61
2021/09/19 18:02:33;;;;;;;1.27;0.70;;;17.40;86.50;;;;;;10118559;28;20293;-63
2021/09/19 18:07:24;;;;;;;1.15;1.05;;;17.50;86.40;;;;;;10114025;28;20021;-60
2021/09/19 18:12:15;;;;;;;2.35;0.63;;;17.30;86.80;;;;;;10124211;28;20496;-62
2021/09/19 18:17:05;;;;;;;0.68;0.60;;;17.30;86.80;;;;;;10112991;28;20037;-59
2021/09/19 18:21:56;;;;;;;1.00;0.57;;;17.30;86.90;;;;;;10117180;28;20063;-60
2021/09/19 18:26:47;;;;;;;0.35;0.30;;;17.20;87.20;;;;;;10102144;28;20082;-60
2021/09/19 18:31:38;;;;;;;1.15;0.50;;;17.30;87.20;;;;;;10119918;28;20074;-60
2021/09/19 18:36:29;;;;;;;2.47;0.80;;;17.20;87.50;;;;;;10119436;28;20119;-61
2021/09/19 18:41:20;;;;;;;0.98;0.80;;;17.20;88.30;;;;;;10122970;28;20669;-62
2021/09/19 18:46:11;;;;;;;2.15;1.55;;;17.20;87.60;;;;;;10110448;28;20033;-61
2021/09/19 18:51:02;;;;;;;1.27;0.95;;;17.20;87.60;;;;;;10109343;28;20096;-62
2021/09/19 18:55:52;;;;;;;0.68;0.52;;;17.30;87.70;;;;;;10112901;28;20114;-60
2021/09/19 19:00:43;;;;;;;1.27;0.70;;;17.20;87.80;;;;;;10122915;28;20107;-60
2021/09/19 19:05:34;;;;;;;0.80;0.60;;;17.30;88.00;;;;;;10116926;28;20024;-62
2021/09/19 19:10:25;;;;;;;1.75;0.63;;;17.30;88.10;;;;;;10109729;28;20523;-59
2021/09/19 19:15:16;;;;;;;1.52;0.80;;;17.30;88.10;;;;;;10112023;28;20352;-62
2021/09/19 19:20:08;;;;;;;1.10;0.93;;;17.20;88.40;;;;;;10114241;28;20045;-61
2021/09/19 19:25:00;;;;;;;2.40;0.88;;;17.20;88.50;;;;;;10097017;28;20037;-60
2021/09/19 19:29:50;;;;;;;0.50;0.50;;;17.30;88.40;;;;;;10119017;28;20032;-63
2021/09/19 19:34:41;;;;;;;0.63;0.63;;;17.10;88.70;;;;;;10114120;28;20050;-61
2021/09/19 19:39:33;;;;;;;1.40;0.70;;;17.10;89.00;;;;;;10107641;28;20040;-61
2021/09/19 19:44:23;;;;;;;1.15;0.63;;;17.00;89.10;;;;;;10107633;28;20180;-61
2021/09/19 19:49:14;;;;;;;2.40;1.50;;;17.10;89.10;;;;;;10117136;28;20566;-62
2021/09/19 19:54:04;;;;;;;0.98;0.73;;;17.00;89.10;;;;;;10123600;28;20033;-61
2021/09/19 19:58:55;;;;;;;1.95;1.17;;;17.00;89.20;;;;;;10112136;28;20044;-62
2021/09/19 20:03:46;;;;;;;1.45;1.35;;;16.90;89.50;;;;;;10112612;28;20029;-61
2021/09/19 20:08:36;;;;;;;1.27;0.80;;;16.90;89.40;;;;;;10110805;28;20040;-62
2021/09/19 20:13:27;;;;;;;1.38;0.75;;;16.90;89.30;;;;;;10112905;28;20056;-60
2021/09/19 20:18:18;;;;;;;1.88;1.13;;;16.90;89.30;;;;;;10104195;28;20130;-64
2021/09/19 20:23:09;;;;;;;1.45;0.90;;;16.90;89.40;;;;;;10093189;28;20078;-62
2021/09/19 20:28:00;;;;;;;1.05;0.70;;;16.90;89.60;;;;;;10110849;28;20032;-62
2021/09/19 20:32:51;;;;;;;2.53;1.05;;;16.90;89.20;;;;;;10113965;28;20020;-62
2021/09/19 20:37:42;;;;;;;1.83;0.60;;;17.00;89.30;;;;;;10119496;28;20357;-61
2021/09/19 20:42:33;;;;;;;2.03;0.88;;;16.90;89.40;;;;;;10113878;28;20768;-61
2021/09/19 20:47:24;;;;;;;2.00;0.90;;;16.90;89.50;;;;;;10119042;28;20068;-62
2021/09/19 20:52:15;;;;;;;1.27;0.60;;;17.00;89.30;;;;;;10120356;28;20028;-59
2021/09/19 20:57:05;;;;;;;1.67;0.70;;;16.80;89.40;;;;;;10116156;28;20447;-63
2021/09/19 21:01:56;;;;;;;1.55;0.88;;;16.60;90.00;;;;;;10117549;28;20036;-61
2021/09/19 21:06:47;;;;;;;1.65;0.63;;;16.70;90.00;;;;;;10112134;28;20056;-61
2021/09/19 21:11:38;;;;;;;1.25;0.70;;;16.70;90.00;;;;;;10113030;28;20103;-62
2021/09/19 21:16:28;;;;;;;1.05;0.73;;;16.80;89.90;;;;;;10096330;28;20032;-62
2021/09/19 21:21:19;;;;;;;1.13;0.80;;;16.80;89.70;;;;;;10132026;28;20047;-63
2021/09/19 21:26:10;;;;;;;1.88;0.60;;;16.80;90.00;;;;;;10138642;28;20018;-61
2021/09/19 21:31:00;;;;;;;1.13;0.60;;;16.70;90.10;;;;;;10130055;28;20033;-62
2021/09/19 21:35:51;;;;;;;1.42;0.70;;;16.60;90.20;;;;;;10133214;28;20035;-63
2021/09/19 21:40:42;;;;;;;1.15;0.47;;;16.60;90.20;;;;;;10129696;28;20046;-62
2021/09/19 21:45:32;;;;;;;0.82;0.75;;;16.60;90.20;;;;;;10125951;28;20522;-59
2021/09/19 21:50:25;;;;;;;1.23;0.70;;;16.60;90.20;;;;;;10131565;28;20036;-61
2021/09/19 21:55:15;;;;;;;1.08;0.60;;;16.60;90.20;;;;;;10119362;28;20041;-59
2021/09/19 22:00:08;;;;;;;1.23;0.70;;;16.60;90.30;;;;;;10125493;28;20044;-60
2021/09/19 22:04:59;;;;;;;0.85;0.65;;;16.60;90.40;;;;;;10120558;28;20560;-60
2021/09/19 22:09:52;;;;;;;1.08;0.55;;;16.60;90.40;;;;;;10113488;28;20042;-59
2021/09/19 22:14:42;;;;;;;1.58;0.65;;;16.50;90.50;;;;;;10118902;28;20036;-60
2021/09/19 22:19:33;;;;;;;1.10;0.73;;;16.60;90.60;;;;;;10115860;28;20036;-62
2021/09/19 22:24:24;;;;;;;1.48;0.60;;;16.60;90.60;;;;;;10116713;28;20474;-58
2021/09/19 22:29:15;;;;;;;1.38;0.68;;;16.60;90.60;;;;;;10116286;28;20024;-62
2021/09/19 22:34:07;;;;;;;1.52;0.70;;;16.50;90.70;;;;;;10117207;28;20404;-61
2021/09/19 22:38:59;;;;;;;0.70;0.57;;;16.50;90.70;;;;;;10117040;28;20329;-60
2021/09/19 22:43:49;;;;;;;0.80;0.80;;;16.50;90.70;;;;;;10118762;28;20027;-60
2021/09/19 22:48:40;;;;;;;4.43;0.93;;;16.50;90.80;;;;;;10116609;28;20044;-58
2021/09/19 22:53:31;;;;;;;2.25;1.13;;;16.50;90.80;;;;;;10112049;28;20077;-60
2021/09/19 22:58:25;;;;;;;1.77;0.77;;;16.40;90.90;;;;;;10099322;28;20041;-59
2021/09/19 23:03:15;;;;;;;0.70;0.50;;;16.40;91.10;;;;;;10117222;28;20029;-60
2021/09/19 23:08:06;;;;;;;1.50;0.95;;;16.40;91.10;;;;;;10113351;28;20435;-58
2021/09/19 23:12:57;;;;;;;1.75;1.10;;;16.40;91.10;;;;;;10115019;28;20024;-60
2021/09/19 23:17:47;;;;;;;1.17;0.80;;;16.40;91.30;;;;;;10117600;28;20044;-60
2021/09/19 23:22:38;;;;;;;1.00;0.68;;;16.30;91.30;;;;;;10114562;28;20041;-61
2021/09/19 23:27:29;;;;;;;1.05;0.70;;;16.20;91.40;;;;;;10114401;28;20054;-59
2021/09/19 23:32:20;;;;;;;1.25;0.85;;;16.30;91.50;;;;;;10114193;28;20024;-59
2021/09/19 23:37:11;;;;;;;1.70;0.93;;;16.20;91.60;;;;;;10092759;28;20094;-61
2021/09/19 23:42:03;;;;;;;0.82;0.70;;;16.20;91.70;;;;;;10112206;28;20029;-60
2021/09/19 23:46:54;;;;;;;4.57;0.95;;;16.20;91.60;;;;;;10113665;28;20253;-59
2021/09/19 23:51:44;;;;;;;1.60;0.77;;;16.30;91.70;;;;;;10109093;28;20187;-59
2021/09/19 23:56:35;;;;;;;1.88;0.85;;;16.40;91.60;;;;;;10095776;28;20254;-60
